Aberlour, United Kingdom
Current Conditions -  °F | °C
As of 9:50 AM on Saturday 25 Oct 2014 (Local Time) from EGQS Reporting Station
Scattered Clouds Scattered Clouds  
Wind Chill: 52°   Ceiling: Unl
Heat Index: 52°   Visibility: 6mi
Dew Point: 43°   Wind: 15mph
Humidity: 71%   Direction: 220°SW
Pressure: 29.47"   Gusts: NA
Location:  57.53°N, 3.21°W
Report Text: EGQS 250850Z 22013KT 9999 FEW030 SCT050 11/06 Q0998 BLU
Loading
Personal Weather Stations






























Interactive Weather Map
Tropical Storm Tracking
New forecast layout! Learn more

10-Day Weather Forecast

Advertisements
Track Severe Weather on mobile